Aviation Digital Data Service (ADDS)

Output produced by TAFs form (1752 UTC 12 December 2017)
found at http://aviationweather.gov/adds/tafs/
 
KVEL 121721Z 1218/1318 VRB03KT P6SM SKC 
     FM130100 30005KT P6SM FEW250